createdAt,value
2023-03-10T00:00:12.647Z,94351.72
2023-03-10T00:02:39.204Z,94350.56
2023-03-10T00:05:05.976Z,94342.91
2023-03-10T00:07:32.488Z,94344.72
2023-03-10T00:09:59.006Z,94338.88
2023-03-10T00:12:27.946Z,94339.69
2023-03-10T00:14:55.028Z,94350.78
2023-03-10T00:17:21.476Z,94342.13
2023-03-10T00:19:47.918Z,94335.25
2023-03-10T00:22:14.370Z,94321.94
2023-03-10T00:24:40.811Z,94304.16
2023-03-10T00:27:07.290Z,94305.78
2023-03-10T00:29:33.735Z,94313.06
2023-03-10T00:32:00.192Z,94327.03
2023-03-10T00:34:26.717Z,94321.63
2023-03-10T00:36:53.448Z,94313.16
2023-03-10T00:39:19.877Z,94318.19
2023-03-10T00:41:46.329Z,94320.03
2023-03-10T00:44:13.258Z,94315.22
2023-03-10T00:46:39.953Z,94318.41
2023-03-10T00:49:10.492Z,94309.53
2023-03-10T00:51:37.035Z,94316.00
2023-03-10T00:54:03.614Z,94312.41
2023-03-10T00:56:30.449Z,94331.16
2023-03-10T00:58:58.048Z,94329.78
2023-03-10T01:01:32.684Z,94333.22
2023-03-10T01:04:00.242Z,94328.53
2023-03-10T01:06:27.520Z,94333.00
2023-03-10T01:08:55.136Z,94340.47
2023-03-10T01:11:22.994Z,94337.47
2023-03-10T01:13:49.907Z,94335.66
2023-03-10T01:16:16.446Z,94340.50
2023-03-10T01:18:43.409Z,94328.25
2023-03-10T01:21:14.214Z,94310.94
2023-03-10T01:23:40.644Z,94309.47
2023-03-10T01:26:07.101Z,94308.09
2023-03-10T01:28:33.548Z,94305.88
2023-03-10T01:31:00.022Z,94291.81
2023-03-10T01:33:26.840Z,94279.88
2023-03-10T01:35:53.369Z,94274.25
2023-03-10T01:38:19.824Z,94267.97
2023-03-10T01:40:50.649Z,94269.78
2023-03-10T01:43:20.195Z,94261.31
2023-03-10T01:45:46.739Z,94250.88
2023-03-10T01:48:13.856Z,94252.91
2023-03-10T01:50:40.757Z,94269.47
2023-03-10T01:53:07.344Z,94266.06
2023-03-10T01:55:36.025Z,94262.44
2023-03-10T01:58:04.927Z,94256.19
2023-03-10T02:00:31.437Z,94262.84
2023-03-10T02:03:15.064Z,94259.41
2023-03-10T02:05:43.793Z,94267.47
2023-03-10T02:08:11.012Z,94257.78
2023-03-10T02:10:37.979Z,94257.78
2023-03-10T02:13:04.541Z,94270.72
2023-03-10T02:15:32.548Z,94271.97
2023-03-10T02:18:00.091Z,94255.66
2023-03-10T02:20:30.046Z,94270.75
2023-03-10T02:22:56.528Z,94263.13
2023-03-10T02:25:32.226Z,94271.19
2023-03-10T02:27:59.085Z,94267.78
2023-03-10T02:30:27.173Z,94256.88
2023-03-10T02:32:55.957Z,94264.53
2023-03-10T02:35:22.493Z,94265.53
2023-03-10T02:37:50.939Z,94261.91
2023-03-10T02:40:40.818Z,94263.31
2023-03-10T02:43:09.017Z,94260.69
2023-03-10T02:45:37.763Z,94253.66
2023-03-10T02:48:04.667Z,94259.28
2023-03-10T02:50:35.519Z,94261.50
2023-03-10T02:53:06.625Z,94259.47
2023-03-10T02:55:33.088Z,94259.50
2023-03-10T02:58:02.497Z,94258.13
2023-03-10T03:00:29.730Z,94262.53
2023-03-10T03:02:56.197Z,94267.16
2023-03-10T03:05:22.624Z,94272.00
2023-03-10T03:07:49.090Z,94261.97
2023-03-10T03:10:15.510Z,94264.78
2023-03-10T03:12:41.947Z,94271.63
2023-03-10T03:15:08.623Z,94265.59
2023-03-10T03:17:35.052Z,94265.59
2023-03-10T03:20:01.499Z,94255.91
2023-03-10T03:22:27.935Z,94255.31
2023-03-10T03:24:54.385Z,94239.81
2023-03-10T03:27:20.848Z,94241.47
2023-03-10T03:29:47.273Z,94241.44
2023-03-10T03:32:13.758Z,94246.88
2023-03-10T03:34:40.275Z,94252.53
2023-03-10T03:37:06.724Z,94262.41
2023-03-10T03:39:33.185Z,94251.94
2023-03-10T03:41:59.715Z,94246.69
2023-03-10T03:44:26.166Z,94241.06
2023-03-10T03:46:52.623Z,94244.13
2023-03-10T03:49:19.071Z,94236.69
2023-03-10T03:51:45.767Z,94239.06
2023-03-10T03:54:12.309Z,94229.81
2023-03-10T03:56:38.818Z,94215.31
2023-03-10T03:59:05.909Z,94225.78
2023-03-10T04:01:32.338Z,94221.56
2023-03-10T04:03:58.847Z,94217.13
2023-03-10T04:06:25.407Z,94212.50
2023-03-10T04:08:51.857Z,94215.91
2023-03-10T04:11:18.391Z,94217.53
2023-03-10T04:13:44.837Z,94212.50
2023-03-10T04:16:11.445Z,94210.09
2023-03-10T04:18:38.062Z,94213.72
2023-03-10T04:21:04.556Z,94218.97
2023-03-10T04:23:30.996Z,94221.38
2023-03-10T04:25:57.523Z,94216.97
2023-03-10T04:28:23.995Z,94216.56
2023-03-10T04:30:51.299Z,94211.31
2023-03-10T04:33:17.764Z,94203.09
2023-03-10T04:35:47.521Z,94202.91
2023-03-10T04:38:14.058Z,94200.69
2023-03-10T04:40:40.513Z,94207.94
2023-03-10T04:43:06.970Z,94204.50
2023-03-10T04:45:33.407Z,94199.28
2023-03-10T04:47:59.835Z,94202.72
2023-03-10T04:50:26.355Z,94208.13
2023-03-10T04:52:52.885Z,94199.69
2023-03-10T04:55:19.384Z,94205.72
2023-03-10T04:57:45.884Z,94202.94
2023-03-10T05:00:13.147Z,94202.09
2023-03-10T05:02:40.481Z,94201.72
2023-03-10T05:05:07.167Z,94195.50
2023-03-10T05:07:33.640Z,94192.47
2023-03-10T05:10:00.291Z,94191.84
2023-03-10T05:12:26.790Z,94189.44
2023-03-10T05:14:53.247Z,94184.84
2023-03-10T05:17:19.742Z,94188.84
2023-03-10T05:19:46.198Z,94184.44
2023-03-10T05:22:12.843Z,94195.50
2023-03-10T05:24:39.706Z,94190.47
2023-03-10T05:27:08.281Z,94186.47
2023-03-10T05:29:34.864Z,94200.72
2023-03-10T05:32:01.296Z,94203.34
2023-03-10T05:34:27.815Z,94194.47
2023-03-10T05:36:54.514Z,94192.47
2023-03-10T05:39:20.955Z,94188.06
2023-03-10T05:41:47.828Z,94193.50
2023-03-10T05:44:14.297Z,94184.44
2023-03-10T05:46:40.779Z,94191.28
2023-03-10T05:49:07.272Z,94192.06
2023-03-10T05:51:33.728Z,94178.22
2023-03-10T05:54:00.209Z,94171.16
2023-03-10T05:56:26.714Z,94178.41
2023-03-10T05:58:53.157Z,94167.94
2023-03-10T06:01:19.625Z,94167.16
2023-03-10T06:03:46.217Z,94172.38
2023-03-10T06:06:13.064Z,94166.34
2023-03-10T06:08:39.491Z,94176.38
2023-03-10T06:11:06.348Z,94166.34
2023-03-10T06:13:32.863Z,94156.28
2023-03-10T06:16:01.093Z,94154.28
2023-03-10T06:18:28.418Z,94150.25
2023-03-10T06:20:55.489Z,94150.03
2023-03-10T06:23:22.627Z,94150.06
2023-03-10T06:25:55.918Z,94146.84
2023-03-10T06:28:22.404Z,94145.41
2023-03-10T06:30:53.954Z,94147.66
2023-03-10T06:33:20.388Z,94157.09
2023-03-10T06:35:46.833Z,94147.25
2023-03-10T06:38:14.213Z,94142.22
2023-03-10T06:40:40.646Z,94148.63
2023-03-10T06:43:07.108Z,94142.19
2023-03-10T06:45:33.689Z,94148.22
2023-03-10T06:48:00.176Z,94148.63
2023-03-10T06:50:26.637Z,94150.84
2023-03-10T06:52:53.408Z,94155.25
2023-03-10T06:55:19.882Z,94153.84
2023-03-10T06:57:46.336Z,94151.84
2023-03-10T07:00:15.712Z,94144.19
2023-03-10T07:02:42.698Z,94143.34
2023-03-10T07:05:12.679Z,94142.50
2023-03-10T07:07:39.263Z,94134.28
2023-03-10T07:10:08.205Z,94132.06
2023-03-10T07:12:34.920Z,94117.09
2023-03-10T07:15:01.365Z,94110.69
2023-03-10T07:17:27.818Z,94117.50
2023-03-10T07:19:54.278Z,94110.63
2023-03-10T07:22:20.717Z,94110.56
2023-03-10T07:24:47.206Z,94101.91
2023-03-10T07:27:13.644Z,94092.00
2023-03-10T07:29:40.081Z,94088.69
2023-03-10T07:32:06.592Z,94087.81
2023-03-10T07:34:33.193Z,94087.34
2023-03-10T07:36:59.616Z,94088.50
2023-03-10T07:39:26.231Z,94078.88
2023-03-10T07:41:52.718Z,94078.19
2023-03-10T07:44:19.219Z,94066.00
2023-03-10T07:46:45.653Z,94067.75
2023-03-10T07:49:12.097Z,94071.16
2023-03-10T07:51:38.542Z,94056.50
2023-03-10T07:54:05.080Z,94068.81
2023-03-10T07:56:31.603Z,94059.78
2023-03-10T07:58:58.619Z,94070.97
2023-03-10T08:01:26.306Z,94061.44
2023-03-10T08:03:53.883Z,94059.91
2023-03-10T08:06:22.877Z,94053.69
2023-03-10T08:08:49.843Z,94049.72
2023-03-10T08:11:16.451Z,94063.00
2023-03-10T08:13:45.388Z,94060.78
2023-03-10T08:16:11.979Z,94054.19
2023-03-10T08:18:39.024Z,94062.09
2023-03-10T08:21:05.811Z,94056.34
2023-03-10T08:23:32.894Z,94049.31
2023-03-10T08:26:03.081Z,94056.47
2023-03-10T08:28:30.732Z,94059.66
2023-03-10T08:31:04.815Z,94053.69
2023-03-10T08:33:32.068Z,94052.81
2023-03-10T08:36:06.548Z,94046.03
2023-03-10T08:38:33.102Z,94045.84
2023-03-10T08:41:08.012Z,94025.56
2023-03-10T08:43:34.597Z,94030.72
2023-03-10T08:46:01.207Z,94022.81
2023-03-10T08:48:27.641Z,94017.84
2023-03-10T08:50:54.132Z,94018.50
2023-03-10T08:53:20.647Z,94014.63
2023-03-10T08:55:47.065Z,94027.66
2023-03-10T08:58:13.582Z,94023.25
2023-03-10T09:00:40.006Z,94025.69
2023-03-10T09:03:06.513Z,94023.34
2023-03-10T09:05:33.174Z,94026.59
2023-03-10T09:07:59.635Z,94026.94
2023-03-10T09:10:27.243Z,94015.88
2023-03-10T09:13:07.225Z,94012.72
2023-03-10T09:15:41.336Z,94022.59
2023-03-10T09:18:08.984Z,94022.06
2023-03-10T09:20:36.252Z,94023.72
2023-03-10T09:23:03.156Z,94018.97
2023-03-10T09:25:29.745Z,94007.31
2023-03-10T09:27:56.230Z,94023.25
2023-03-10T09:30:23.099Z,94016.91
2023-03-10T09:32:50.037Z,94010.56
2023-03-10T09:35:16.596Z,94013.25
2023-03-10T09:37:43.056Z,93996.25
2023-03-10T09:40:14.917Z,94005.84
2023-03-10T09:42:44.726Z,94010.09
2023-03-10T09:45:25.746Z,94000.00
2023-03-10T09:48:11.124Z,94017.50
2023-03-10T09:50:37.565Z,93998.91
2023-03-10T09:53:23.003Z,94004.75
2023-03-10T09:55:49.443Z,94004.47
2023-03-10T09:58:29.054Z,94007.94
2023-03-10T10:00:55.552Z,93993.88
2023-03-10T10:03:42.961Z,93983.50
2023-03-10T10:06:18.259Z,93975.50
2023-03-10T10:08:54.803Z,93978.13
2023-03-10T10:11:28.406Z,93986.09
2023-03-10T10:14:22.330Z,93981.00
2023-03-10T10:16:52.806Z,93969.00
2023-03-10T10:19:23.501Z,93957.31
2023-03-10T10:22:00.137Z,93968.97
2023-03-10T10:24:26.658Z,93952.72
2023-03-10T10:26:53.151Z,93957.50
2023-03-10T10:29:24.858Z,93952.16
2023-03-10T10:32:10.152Z,93944.97
2023-03-10T10:34:37.761Z,93949.22
2023-03-10T10:37:20.352Z,93933.84
2023-03-10T10:39:48.176Z,93946.84
2023-03-10T10:42:14.693Z,93935.63
2023-03-10T10:44:42.302Z,93930.53
2023-03-10T10:47:18.632Z,93919.31
2023-03-10T10:49:45.196Z,93908.41
2023-03-10T10:52:25.722Z,93904.66
2023-03-10T10:54:56.743Z,93901.38
2023-03-10T10:57:24.480Z,93909.88
2023-03-10T10:59:51.586Z,93892.47
2023-03-10T11:02:23.136Z,93882.50
2023-03-10T11:04:49.645Z,93880.00
2023-03-10T11:07:19.590Z,93880.75
2023-03-10T11:09:46.707Z,93871.13
2023-03-10T11:12:30.029Z,93869.72
2023-03-10T11:14:57.754Z,93873.97
2023-03-10T11:17:24.327Z,93872.88
2023-03-10T11:20:09.746Z,93856.56
2023-03-10T11:22:42.297Z,93879.44
2023-03-10T11:25:15.384Z,93871.94
2023-03-10T11:27:41.804Z,93855.78
2023-03-10T11:30:26.648Z,93851.56
2023-03-10T11:33:02.613Z,93846.47
2023-03-10T11:35:45.735Z,93837.44
2023-03-10T11:38:42.439Z,93837.16
2023-03-10T11:41:12.113Z,93832.34
2023-03-10T11:43:41.334Z,93818.56
2023-03-10T11:46:21.381Z,93829.75
2023-03-10T11:48:53.103Z,93815.66
2023-03-10T11:51:27.352Z,93814.22
2023-03-10T11:53:55.839Z,93810.88
2023-03-10T11:56:23.472Z,93802.59
2023-03-10T11:58:52.792Z,93801.72
2023-03-10T12:01:28.428Z,93809.31
2023-03-10T12:04:02.228Z,93814.56
2023-03-10T12:06:37.615Z,93796.41
2023-03-10T12:09:07.007Z,93790.06
2023-03-10T12:11:35.264Z,93799.03
2023-03-10T12:14:02.346Z,93792.53
2023-03-10T12:16:30.900Z,93798.50
2023-03-10T12:18:57.829Z,93805.25
2023-03-10T12:21:28.442Z,93785.69
2023-03-10T12:23:56.693Z,93792.81
2023-03-10T12:26:55.512Z,93801.41
2023-03-10T12:29:22.038Z,93806.22
2023-03-10T12:31:49.795Z,93786.63
2023-03-10T12:34:22.293Z,93806.97
2023-03-10T12:36:53.380Z,93777.69
2023-03-10T12:39:26.184Z,93778.84
2023-03-10T12:42:00.675Z,93775.59
2023-03-10T12:44:46.109Z,93767.47
2023-03-10T12:47:13.547Z,93783.38
2023-03-10T12:49:49.884Z,93762.97
2023-03-10T12:52:35.033Z,93755.88
2023-03-10T12:55:01.511Z,93761.28
2023-03-10T12:57:41.601Z,93770.75
2023-03-10T13:00:20.248Z,93756.03
2023-03-10T13:03:12.727Z,93759.38
2023-03-10T13:05:42.903Z,93750.13
2023-03-10T13:08:21.217Z,93759.94
2023-03-10T13:10:51.821Z,93746.16
2023-03-10T13:13:18.376Z,93752.28
2023-03-10T13:15:56.747Z,93736.97
2023-03-10T13:18:23.714Z,93730.56
2023-03-10T13:20:50.626Z,93728.78
2023-03-10T13:23:22.738Z,93738.56
2023-03-10T13:25:56.658Z,93732.97
2023-03-10T13:28:27.660Z,93738.09
2023-03-10T13:31:09.254Z,93745.16
2023-03-10T13:33:50.197Z,93746.38
2023-03-10T13:36:22.224Z,93742.63
2023-03-10T13:38:50.048Z,93732.84
2023-03-10T13:41:16.745Z,93750.72
2023-03-10T13:43:45.681Z,93741.84
2023-03-10T13:46:17.195Z,93743.16
2023-03-10T13:48:44.328Z,93748.28
2023-03-10T13:51:17.330Z,93738.78
2023-03-10T13:53:44.679Z,93750.56
2023-03-10T13:56:33.793Z,93744.22
2023-03-10T13:59:02.964Z,93735.38
2023-03-10T14:01:31.617Z,93742.88
2023-03-10T14:04:05.927Z,93741.22
2023-03-10T14:06:32.816Z,93746.25
2023-03-10T14:09:18.034Z,93741.84
2023-03-10T14:11:46.985Z,93742.53
2023-03-10T14:14:25.333Z,93742.97
2023-03-10T14:16:56.988Z,93750.75
2023-03-10T14:19:56.596Z,93745.25
2023-03-10T14:22:23.044Z,93741.22
2023-03-10T14:24:49.558Z,93737.19
2023-03-10T14:27:16.390Z,93745.19
2023-03-10T14:29:49.345Z,93738.22
2023-03-10T14:32:16.369Z,93727.59
2023-03-10T14:34:42.910Z,93736.50
2023-03-10T14:37:09.444Z,93743.50
2023-03-10T14:39:36.003Z,93731.38
2023-03-10T14:42:03.385Z,93719.13
2023-03-10T14:44:30.467Z,93730.44
2023-03-10T14:46:57.137Z,93717.81
2023-03-10T14:49:24.735Z,93710.22
2023-03-10T14:51:51.638Z,93702.22
2023-03-10T14:54:22.842Z,93697.81
2023-03-10T14:56:58.939Z,93693.69
2023-03-10T14:59:27.737Z,93692.34
2023-03-10T15:01:55.561Z,93689.41
2023-03-10T15:04:22.350Z,93689.25
2023-03-10T15:06:48.991Z,93687.66
2023-03-10T15:09:15.490Z,93688.22
2023-03-10T15:11:42.094Z,93680.53
2023-03-10T15:14:16.272Z,93687.66
2023-03-10T15:16:42.811Z,93684.78
2023-03-10T15:19:16.837Z,93690.66
2023-03-10T15:21:43.571Z,93686.16
2023-03-10T15:24:10.181Z,93684.84
2023-03-10T15:26:36.749Z,93671.53
2023-03-10T15:29:03.269Z,93673.69
2023-03-10T15:31:29.831Z,93666.81
2023-03-10T15:33:56.332Z,93669.47
2023-03-10T15:36:23.045Z,93668.69
2023-03-10T15:38:49.579Z,93672.66
2023-03-10T15:41:17.155Z,93670.03
2023-03-10T15:43:43.650Z,93670.59
2023-03-10T15:46:10.207Z,93670.88
2023-03-10T15:48:36.800Z,93670.63
2023-03-10T15:51:09.603Z,93672.75
2023-03-10T15:53:36.909Z,93662.69
2023-03-10T15:56:07.562Z,93672.03
2023-03-10T15:58:34.545Z,93676.03
2023-03-10T16:01:05.944Z,93665.44
2023-03-10T16:03:38.600Z,93671.06
2023-03-10T16:06:05.721Z,93677.97
2023-03-10T16:08:37.235Z,93670.56
2023-03-10T16:11:05.247Z,93676.16
2023-03-10T16:13:33.889Z,93663.94
2023-03-10T16:16:04.210Z,93668.75
2023-03-10T16:18:30.671Z,93670.59
2023-03-10T16:20:58.844Z,93665.00
2023-03-10T16:23:26.140Z,93670.88
2023-03-10T16:26:11.226Z,93668.22
2023-03-10T16:28:39.068Z,93665.59
2023-03-10T16:31:06.333Z,93669.56
2023-03-10T16:33:33.318Z,93666.41
2023-03-10T16:36:00.778Z,93670.69
2023-03-10T16:38:27.728Z,93670.94
2023-03-10T16:40:54.577Z,93672.56
2023-03-10T16:43:21.799Z,93665.69
2023-03-10T16:45:50.988Z,93661.47
2023-03-10T16:48:20.949Z,93681.88
2023-03-10T16:50:47.887Z,93696.75
2023-03-10T16:53:16.644Z,93677.97
2023-03-10T16:55:44.178Z,93682.75
2023-03-10T16:58:10.908Z,93685.66
2023-03-10T17:00:38.057Z,93684.59
2023-03-10T17:03:04.581Z,93682.72
2023-03-10T17:05:31.147Z,93674.50
2023-03-10T17:08:02.445Z,93668.97
2023-03-10T17:10:29.738Z,93671.09
2023-03-10T17:12:56.835Z,93671.09
2023-03-10T17:15:23.741Z,93679.03
2023-03-10T17:17:50.393Z,93687.25
2023-03-10T17:20:18.564Z,93667.91
2023-03-10T17:22:45.098Z,93673.19
2023-03-10T17:25:13.013Z,93669.75
2023-03-10T17:27:40.278Z,93670.81
2023-03-10T17:30:08.613Z,93667.88
2023-03-10T17:32:35.187Z,93678.47
2023-03-10T17:35:01.716Z,93677.13
2023-03-10T17:37:28.229Z,93671.56
2023-03-10T17:39:54.718Z,93667.34
2023-03-10T17:42:22.510Z,93675.78
2023-03-10T17:44:49.024Z,93687.94
2023-03-10T17:47:15.518Z,93707.53
2023-03-10T17:49:42.093Z,93701.72
2023-03-10T17:52:08.635Z,93680.50
2023-03-10T17:54:35.339Z,93685.78
2023-03-10T17:57:01.949Z,93676.50
2023-03-10T17:59:28.806Z,93667.22
2023-03-10T18:01:55.405Z,93644.44
2023-03-10T18:04:22.074Z,93638.09
2023-03-10T18:06:48.630Z,93624.63
2023-03-10T18:09:16.283Z,93630.69
2023-03-10T18:11:42.841Z,93627.28
2023-03-10T18:14:09.527Z,93628.31
2023-03-10T18:16:37.852Z,93624.13
2023-03-10T18:19:04.577Z,93632.31
2023-03-10T18:21:31.149Z,93633.38
2023-03-10T18:23:57.707Z,93624.38
2023-03-10T18:26:25.595Z,93629.66
2023-03-10T18:28:52.055Z,93618.00
2023-03-10T18:31:26.897Z,93617.19
2023-03-10T18:33:53.804Z,93608.47
2023-03-10T18:36:20.769Z,93605.28
2023-03-10T18:38:47.972Z,93605.81
2023-03-10T18:41:17.283Z,93606.31
2023-03-10T18:43:43.916Z,93608.69
2023-03-10T18:46:10.447Z,93608.44
2023-03-10T18:48:36.961Z,93598.06
2023-03-10T18:51:03.569Z,93596.75
2023-03-10T18:53:31.468Z,93585.09
2023-03-10T18:55:58.842Z,93583.50
2023-03-10T18:58:25.409Z,93580.84
2023-03-10T19:00:52.102Z,93577.94
2023-03-10T19:03:19.345Z,93581.88
2023-03-10T19:05:46.525Z,93570.75
2023-03-10T19:08:13.387Z,93575.53
2023-03-10T19:10:40.377Z,93566.81
2023-03-10T19:13:08.048Z,93566.53
2023-03-10T19:15:36.589Z,93568.63
2023-03-10T19:18:03.684Z,93568.34
2023-03-10T19:20:30.319Z,93567.28
2023-03-10T19:22:57.630Z,93566.47
2023-03-10T19:25:24.757Z,93562.25
2023-03-10T19:27:52.074Z,93556.44
2023-03-10T19:30:20.567Z,93561.16
2023-03-10T19:32:47.759Z,93550.06
2023-03-10T19:35:15.333Z,93538.16
2023-03-10T19:37:43.790Z,93531.28
2023-03-10T19:40:17.828Z,93533.91
2023-03-10T19:42:45.001Z,93530.97
2023-03-10T19:45:12.604Z,93520.13
2023-03-10T19:47:39.507Z,93511.94
2023-03-10T19:50:06.792Z,93503.44
2023-03-10T19:52:33.469Z,93518.22
2023-03-10T19:55:00.625Z,93526.91
2023-03-10T19:57:27.963Z,93524.75
2023-03-10T19:59:55.329Z,93523.91
2023-03-10T20:02:22.246Z,93520.19
2023-03-10T20:04:50.505Z,93532.59
2023-03-10T20:07:18.123Z,93525.47
2023-03-10T20:09:48.252Z,93526.03
2023-03-10T20:12:14.949Z,93523.91
2023-03-10T20:14:41.507Z,93507.03
2023-03-10T20:17:09.298Z,93530.25
2023-03-10T20:19:35.798Z,93542.88
2023-03-10T20:22:02.356Z,93548.16
2023-03-10T20:24:29.118Z,93542.78
2023-03-10T20:26:58.427Z,93539.63
2023-03-10T20:29:25.012Z,93545.50
2023-03-10T20:31:51.522Z,93553.97
2023-03-10T20:34:21.522Z,93544.22
2023-03-10T20:36:48.653Z,93539.50
2023-03-10T20:39:15.140Z,93534.47
2023-03-10T20:41:44.490Z,93536.13
2023-03-10T20:44:14.166Z,93537.22
2023-03-10T20:46:41.680Z,93531.94
2023-03-10T20:49:08.169Z,93528.78
2023-03-10T20:51:34.713Z,93531.97
2023-03-10T20:54:01.191Z,93529.34
2023-03-10T20:56:29.362Z,93526.19
2023-03-10T20:58:59.840Z,93518.22
2023-03-10T21:01:26.609Z,93517.41
2023-03-10T21:03:56.593Z,93513.69
2023-03-10T21:06:23.904Z,93514.50
2023-03-10T21:08:50.421Z,93505.53
2023-03-10T21:11:17.947Z,93504.47
2023-03-10T21:13:44.557Z,93498.66
2023-03-10T21:16:11.797Z,93501.28
2023-03-10T21:18:38.519Z,93497.06
2023-03-10T21:21:09.777Z,93497.06
2023-03-10T21:23:37.352Z,93494.19
2023-03-10T21:26:09.256Z,93492.84
2023-03-10T21:28:35.738Z,93487.56
2023-03-10T21:31:02.238Z,93480.72
2023-03-10T21:33:28.730Z,93477.25
2023-03-10T21:35:55.287Z,93468.56
2023-03-10T21:38:21.815Z,93459.31
2023-03-10T21:40:48.425Z,93449.50
2023-03-10T21:43:14.862Z,93451.88
2023-03-10T21:45:41.375Z,93441.03
2023-03-10T21:48:08.400Z,93428.88
2023-03-10T21:50:34.856Z,93422.00
2023-03-10T21:53:01.376Z,93423.59
2023-03-10T21:55:29.467Z,93417.81
2023-03-10T21:57:55.954Z,93418.88
2023-03-10T22:00:24.031Z,93421.25
2023-03-10T22:02:51.288Z,93427.03
2023-03-10T22:05:18.221Z,93424.66
2023-03-10T22:07:44.985Z,93423.59
2023-03-10T22:10:12.444Z,93419.88
2023-03-10T22:12:39.002Z,93407.22
2023-03-10T22:15:06.510Z,93405.31
2023-03-10T22:17:33.293Z,93408.72
2023-03-10T22:20:01.030Z,93402.91
2023-03-10T22:22:27.482Z,93394.69
2023-03-10T22:24:53.935Z,93391.00
2023-03-10T22:27:20.368Z,93391.50
2023-03-10T22:29:46.816Z,93380.66
2023-03-10T22:32:13.401Z,93372.22
2023-03-10T22:34:39.917Z,93384.06
2023-03-10T22:37:06.401Z,93375.88
2023-03-10T22:39:32.959Z,93379.03
2023-03-10T22:41:59.460Z,93370.56
2023-03-10T22:44:26.145Z,93372.41
2023-03-10T22:46:52.659Z,93375.56
2023-03-10T22:49:19.511Z,93370.00
2023-03-10T22:51:45.954Z,93370.00
2023-03-10T22:54:12.458Z,93370.00
2023-03-10T22:56:38.971Z,93362.34
2023-03-10T22:59:05.992Z,93359.16
2023-03-10T23:01:32.560Z,93350.72
2023-03-10T23:03:59.322Z,93351.78
2023-03-10T23:06:29.137Z,93354.94
2023-03-10T23:08:56.240Z,93349.38
2023-03-10T23:11:23.028Z,93352.53
2023-03-10T23:13:49.778Z,93358.56
2023-03-10T23:16:18.215Z,93362.53
2023-03-10T23:18:44.715Z,93363.06
2023-03-10T23:21:11.384Z,93353.78
2023-03-10T23:23:39.273Z,93342.44
2023-03-10T23:26:05.774Z,93341.50
2023-03-10T23:28:32.256Z,93337.22
2023-03-10T23:31:00.453Z,93335.41
2023-03-10T23:33:27.051Z,93328.53
2023-03-10T23:35:56.494Z,93344.34
2023-03-10T23:38:23.993Z,93343.34
2023-03-10T23:40:51.284Z,93349.69
2023-03-10T23:43:17.716Z,93338.41
2023-03-10T23:45:44.582Z,93325.50
2023-03-10T23:48:13.198Z,93328.44
2023-03-10T23:50:41.996Z,93336.00
2023-03-10T23:53:09.598Z,93346.00
2023-03-10T23:55:38.169Z,93354.44
2023-03-10T23:58:05.097Z,93359.47
